TimeICT,TemperatureF,Dew PointF,Humidity,Sea Level PressureIn,VisibilityMPH,Wind Direction,Wind SpeedMPH,Gust SpeedMPH,PrecipitationIn,Events,Conditions,WindDirDegrees,DateUTC
12:00 AM,77.0,75.2,94,29.92,4.3,Variable,2.3,-,N/A,,Mostly Cloudy,0,2013-10-26 17:00:00
12:30 AM,77.0,75.2,94,29.89,4.3,North,1.2,-,N/A,,Mostly Cloudy,360,2013-10-26 17:30:00
1:00 AM,77,76,95,29.84,5,Calm,Calm,,,,Mist,,2013-10-26 18:00:00
1:00 AM,77.0,75.2,94,29.89,4.3,Variable,2.3,-,N/A,,Mostly Cloudy,0,2013-10-26 18:00:00
1:30 AM,75.2,73.4,94,29.89,4.3,Variable,3.5,-,N/A,Rain,Light Rain,0,2013-10-26 18:30:00
2:00 AM,75.2,73.4,94,29.86,4.3,Calm,Calm,-,N/A,Rain,Light Rain,0,2013-10-26 19:00:00
3:00 AM,77.0,73.4,89,29.86,4.3,Calm,Calm,-,N/A,,Mostly Cloudy,0,2013-10-26 20:00:00
3:30 AM,77.0,73.4,89,29.86,4.3,Calm,Calm,-,N/A,,Mostly Cloudy,0,2013-10-26 20:30:00
4:00 AM,77.0,73.4,89,29.86,4.3,North,3.5,-,N/A,,Mostly Cloudy,360,2013-10-26 21:00:00
4:30 AM,77.0,73.4,89,29.86,1.9,Variable,2.3,-,N/A,Rain,Rain,0,2013-10-26 21:30:00
5:00 AM,73.4,71.6,94,29.86,1.9,NE,4.6,-,N/A,Rain,Rain,50,2013-10-26 22:00:00
5:30 AM,73.4,71.6,94,29.86,4.3,Variable,1.2,-,N/A,,Mostly Cloudy,0,2013-10-26 22:30:00
6:00 AM,75.2,71.6,89,29.86,5.0,Calm,Calm,-,N/A,,Mostly Cloudy,0,2013-10-26 23:00:00
6:30 AM,75.2,71.6,89,29.86,5.6,Calm,Calm,-,N/A,,Mostly Cloudy,0,2013-10-26 23:30:00
7:00 AM,75,74,96,29.84,6,Calm,Calm,,,,Partly Cloudy,,2013-10-27 00:00:00
7:00 AM,75.2,71.6,89,29.89,5.6,Calm,Calm,-,N/A,,Mostly Cloudy,0,2013-10-27 00:00:00
7:30 AM,75.2,73.4,94,29.89,5.6,Variable,1.2,-,N/A,,Mostly Cloudy,0,2013-10-27 00:30:00
8:00 AM,77.0,73.4,89,29.92,5.6,Calm,Calm,-,N/A,,Mostly Cloudy,0,2013-10-27 01:00:00
8:30 AM,80.6,75.2,84,29.92,5.6,ENE,6.9,-,N/A,,Mostly Cloudy,70,2013-10-27 01:30:00
9:00 AM,82.4,73.4,74,29.92,5.6,ENE,6.9,-,N/A,,Mostly Cloudy,70,2013-10-27 02:00:00
9:30 AM,82.4,75.2,79,29.92,5.0,East,10.4,-,N/A,,Mostly Cloudy,90,2013-10-27 02:30:00
10:00 AM,84.2,73.4,70,29.92,4.3,East,11.5,-,N/A,,Mostly Cloudy,90,2013-10-27 03:00:00
10:30 AM,82.4,75.2,79,29.92,5.0,Variable,4.6,-,N/A,,Mostly Cloudy,0,2013-10-27 03:30:00
11:00 AM,84.2,75.2,74,29.92,5.6,ESE,6.9,-,N/A,,Scattered Clouds,110,2013-10-27 04:00:00
11:30 AM,84.2,71.6,66,29.89,5.6,SE,8.1,-,N/A,,Scattered Clouds,130,2013-10-27 04:30:00
12:00 PM,84.2,73.4,70,29.89,5.6,ESE,9.2,-,N/A,,Scattered Clouds,110,2013-10-27 05:00:00
12:30 PM,86.0,73.4,66,29.86,5.6,East,10.4,-,N/A,,Scattered Clouds,100,2013-10-27 05:30:00
1:00 PM,85,75,65,29.85,6,East,8.1,,,,Scattered Clouds,100,2013-10-27 06:00:00
1:00 PM,84.2,71.6,66,29.86,5.6,SE,11.5,-,N/A,,Scattered Clouds,130,2013-10-27 06:00:00
1:30 PM,86.0,71.6,62,29.83,5.6,SE,10.4,-,N/A,,Scattered Clouds,130,2013-10-27 06:30:00
2:00 PM,86.0,71.6,62,29.83,5.6,ESE,6.9,-,N/A,,Mostly Cloudy,110,2013-10-27 07:00:00
2:30 PM,84.2,71.6,66,29.83,5.0,East,6.9,-,N/A,,Mostly Cloudy,90,2013-10-27 07:30:00
3:00 PM,82.4,75.2,79,29.80,4.3,Variable,2.3,-,N/A,,Mostly Cloudy,0,2013-10-27 08:00:00
3:30 PM,82.4,73.4,74,29.83,5.0,Variable,3.5,-,N/A,,Mostly Cloudy,0,2013-10-27 08:30:00
4:00 PM,82.4,73.4,74,29.83,4.3,WSW,3.5,-,N/A,,Mostly Cloudy,240,2013-10-27 09:00:00
4:30 PM,84.2,75.2,74,29.83,5.0,WSW,5.8,-,N/A,,Mostly Cloudy,250,2013-10-27 09:30:00
5:00 PM,82.4,73.4,74,29.83,5.0,WNW,4.6,-,N/A,,Mostly Cloudy,300,2013-10-27 10:00:00
5:30 PM,80.6,73.4,79,29.86,5.0,Variable,4.6,-,N/A,,Mostly Cloudy,0,2013-10-27 10:30:00
6:00 PM,78.8,73.4,83,29.86,1.9,North,4.6,-,N/A,Rain,Rain,350,2013-10-27 11:00:00
6:30 PM,78.8,73.4,83,29.86,5.0,NW,3.5,-,N/A,,Mostly Cloudy,310,2013-10-27 11:30:00
7:00 PM,80,76,84,29.83,6,Calm,Calm,,,,Partly Cloudy,,2013-10-27 12:00:00
7:00 PM,77.0,73.4,89,29.86,5.0,Calm,Calm,-,N/A,,Mostly Cloudy,0,2013-10-27 12:00:00
7:30 PM,77.0,75.2,94,29.86,5.0,Calm,Calm,-,N/A,,Mostly Cloudy,0,2013-10-27 12:30:00
8:00 PM,77.0,73.4,89,29.89,5.0,Calm,Calm,-,N/A,,Mostly Cloudy,0,2013-10-27 13:00:00
8:30 PM,77.0,73.4,89,29.92,5.0,Calm,Calm,-,N/A,,Mostly Cloudy,0,2013-10-27 13:30:00
9:00 PM,77.0,73.4,89,29.92,5.0,Calm,Calm,-,N/A,,Mostly Cloudy,0,2013-10-27 14:00:00
9:30 PM,77.0,73.4,89,29.92,5.6,Calm,Calm,-,N/A,,Mostly Cloudy,0,2013-10-27 14:30:00
10:00 PM,77.0,73.4,89,29.92,5.6,Calm,Calm,-,N/A,,Mostly Cloudy,0,2013-10-27 15:00:00
10:30 PM,77.0,73.4,89,29.92,5.6,Calm,Calm,-,N/A,,Mostly Cloudy,0,2013-10-27 15:30:00
11:00 PM,77.0,73.4,89,29.92,5.6,Calm,Calm,-,N/A,,Mostly Cloudy,0,2013-10-27 16:00:00
11:30 PM,77.0,73.4,89,29.92,5.0,Calm,Calm,-,N/A,,Mostly Cloudy,0,2013-10-27 16:30:00